sensor_id;sensor_type;location;lat;lon;timestamp;P1;durP1;ratioP1;P2;durP2;ratioP2
11524;SDS011;5819;49.648;8.330;2023-05-14T00:01:52;6.00;;;5.40;;
11524;SDS011;5819;49.648;8.330;2023-05-14T00:04:22;5.95;;;5.35;;
11524;SDS011;5819;49.648;8.330;2023-05-14T00:06:50;6.30;;;5.70;;
11524;SDS011;5819;49.648;8.330;2023-05-14T00:09:18;7.32;;;5.20;;
11524;SDS011;5819;49.648;8.330;2023-05-14T00:11:46;5.93;;;5.28;;
11524;SDS011;5819;49.648;8.330;2023-05-14T00:14:14;7.47;;;5.78;;
11524;SDS011;5819;49.648;8.330;2023-05-14T00:16:42;6.38;;;5.78;;
11524;SDS011;5819;49.648;8.330;2023-05-14T00:19:10;6.85;;;6.15;;
11524;SDS011;5819;49.648;8.330;2023-05-14T00:21:39;7.20;;;6.15;;
11524;SDS011;5819;49.648;8.330;2023-05-14T00:24:07;6.20;;;5.60;;
11524;SDS011;5819;49.648;8.330;2023-05-14T00:26:35;8.75;;;6.35;;
11524;SDS011;5819;49.648;8.330;2023-05-14T00:31:58;8.63;;;5.85;;
11524;SDS011;5819;49.648;8.330;2023-05-14T00:34:26;6.95;;;6.03;;
11524;SDS011;5819;49.648;8.330;2023-05-14T00:36:55;7.20;;;5.93;;
11524;SDS011;5819;49.648;8.330;2023-05-14T00:39:22;8.10;;;6.32;;
11524;SDS011;5819;49.648;8.330;2023-05-14T00:41:50;7.72;;;6.28;;
11524;SDS011;5819;49.648;8.330;2023-05-14T00:44:18;6.78;;;6.18;;
11524;SDS011;5819;49.648;8.330;2023-05-14T00:46:46;6.97;;;6.38;;
11524;SDS011;5819;49.648;8.330;2023-05-14T00:49:15;6.78;;;6.18;;
11524;SDS011;5819;49.648;8.330;2023-05-14T00:51:43;7.80;;;6.68;;
11524;SDS011;5819;49.648;8.330;2023-05-14T00:54:14;7.72;;;6.30;;
11524;SDS011;5819;49.648;8.330;2023-05-14T00:56:44;7.47;;;6.78;;
11524;SDS011;5819;49.648;8.330;2023-05-14T00:59:29;8.70;;;6.80;;
11524;SDS011;5819;49.648;8.330;2023-05-14T01:01:57;7.35;;;6.60;;
11524;SDS011;5819;49.648;8.330;2023-05-14T01:04:25;7.13;;;6.47;;
11524;SDS011;5819;49.648;8.330;2023-05-14T01:06:55;8.57;;;7.07;;
11524;SDS011;5819;49.648;8.330;2023-05-14T01:09:35;7.00;;;6.45;;
11524;SDS011;5819;49.648;8.330;2023-05-14T01:12:07;8.10;;;7.18;;
11524;SDS011;5819;49.648;8.330;2023-05-14T01:14:42;8.18;;;7.32;;
11524;SDS011;5819;49.648;8.330;2023-05-14T01:17:15;8.98;;;8.07;;
11524;SDS011;5819;49.648;8.330;2023-05-14T01:19:46;9.20;;;7.38;;
11524;SDS011;5819;49.648;8.330;2023-05-14T01:22:16;8.57;;;7.63;;
11524;SDS011;5819;49.648;8.330;2023-05-14T01:24:44;8.45;;;7.70;;
11524;SDS011;5819;49.648;8.330;2023-05-14T01:27:14;8.25;;;7.43;;
11524;SDS011;5819;49.648;8.330;2023-05-14T01:29:50;8.02;;;7.22;;
11524;SDS011;5819;49.648;8.330;2023-05-14T01:32:23;8.75;;;7.85;;
11524;SDS011;5819;49.648;8.330;2023-05-14T01:34:53;7.82;;;7.13;;
11524;SDS011;5819;49.648;8.330;2023-05-14T01:37:26;9.57;;;7.80;;
11524;SDS011;5819;49.648;8.330;2023-05-14T01:39:56;11.43;;;8.50;;
11524;SDS011;5819;49.648;8.330;2023-05-14T01:42:25;8.13;;;7.43;;
11524;SDS011;5819;49.648;8.330;2023-05-14T01:44:55;8.50;;;7.60;;
11524;SDS011;5819;49.648;8.330;2023-05-14T01:47:23;9.38;;;7.45;;
11524;SDS011;5819;49.648;8.330;2023-05-14T01:49:51;8.80;;;7.85;;
11524;SDS011;5819;49.648;8.330;2023-05-14T01:52:19;8.90;;;8.10;;
11524;SDS011;5819;49.648;8.330;2023-05-14T01:54:48;9.10;;;8.20;;
11524;SDS011;5819;49.648;8.330;2023-05-14T01:57:16;11.23;;;7.88;;
11524;SDS011;5819;49.648;8.330;2023-05-14T01:59:44;9.73;;;8.10;;
11524;SDS011;5819;49.648;8.330;2023-05-14T02:02:12;8.70;;;7.80;;
11524;SDS011;5819;49.648;8.330;2023-05-14T02:04:40;8.45;;;7.70;;
11524;SDS011;5819;49.648;8.330;2023-05-14T02:07:09;8.98;;;8.10;;
11524;SDS011;5819;49.648;8.330;2023-05-14T02:09:37;8.95;;;8.15;;
11524;SDS011;5819;49.648;8.330;2023-05-14T02:12:08;8.27;;;7.53;;
11524;SDS011;5819;49.648;8.330;2023-05-14T02:14:36;9.52;;;8.63;;
11524;SDS011;5819;49.648;8.330;2023-05-14T02:17:04;9.68;;;8.77;;
11524;SDS011;5819;49.648;8.330;2023-05-14T02:19:32;10.48;;;9.25;;
11524;SDS011;5819;49.648;8.330;2023-05-14T02:22:00;10.70;;;9.48;;
11524;SDS011;5819;49.648;8.330;2023-05-14T02:24:28;9.38;;;8.48;;
11524;SDS011;5819;49.648;8.330;2023-05-14T02:26:56;9.50;;;8.63;;
11524;SDS011;5819;49.648;8.330;2023-05-14T02:29:27;10.60;;;9.15;;
11524;SDS011;5819;49.648;8.330;2023-05-14T02:31:55;9.65;;;8.65;;
11524;SDS011;5819;49.648;8.330;2023-05-14T02:34:24;9.55;;;8.65;;
11524;SDS011;5819;49.648;8.330;2023-05-14T02:36:52;10.30;;;8.98;;
11524;SDS011;5819;49.648;8.330;2023-05-14T02:39:19;9.60;;;8.70;;
11524;SDS011;5819;49.648;8.330;2023-05-14T02:41:47;10.32;;;9.32;;
11524;SDS011;5819;49.648;8.330;2023-05-14T02:44:16;10.00;;;8.98;;
11524;SDS011;5819;49.648;8.330;2023-05-14T02:46:45;10.13;;;9.20;;
11524;SDS011;5819;49.648;8.330;2023-05-14T02:49:14;11.25;;;9.60;;
11524;SDS011;5819;49.648;8.330;2023-05-14T02:51:41;11.05;;;9.70;;
11524;SDS011;5819;49.648;8.330;2023-05-14T02:54:09;12.85;;;9.48;;
11524;SDS011;5819;49.648;8.330;2023-05-14T02:56:37;10.80;;;9.90;;
11524;SDS011;5819;49.648;8.330;2023-05-14T02:59:05;11.02;;;10.10;;
11524;SDS011;5819;49.648;8.330;2023-05-14T03:01:33;11.10;;;10.00;;
11524;SDS011;5819;49.648;8.330;2023-05-14T03:04:03;11.65;;;10.45;;
11524;SDS011;5819;49.648;8.330;2023-05-14T03:06:31;12.07;;;10.13;;
11524;SDS011;5819;49.648;8.330;2023-05-14T03:08:59;10.85;;;9.80;;
11524;SDS011;5819;49.648;8.330;2023-05-14T03:11:27;11.20;;;10.20;;
11524;SDS011;5819;49.648;8.330;2023-05-14T03:13:54;12.27;;;9.82;;
11524;SDS011;5819;49.648;8.330;2023-05-14T03:16:22;11.55;;;10.45;;
11524;SDS011;5819;49.648;8.330;2023-05-14T03:18:51;10.20;;;9.27;;
11524;SDS011;5819;49.648;8.330;2023-05-14T03:21:21;10.95;;;9.85;;
11524;SDS011;5819;49.648;8.330;2023-05-14T03:23:49;12.40;;;9.85;;
11524;SDS011;5819;49.648;8.330;2023-05-14T03:26:17;10.57;;;9.57;;
11524;SDS011;5819;49.648;8.330;2023-05-14T03:28:45;12.00;;;10.52;;
11524;SDS011;5819;49.648;8.330;2023-05-14T03:31:13;11.40;;;9.88;;
11524;SDS011;5819;49.648;8.330;2023-05-14T03:33:41;10.73;;;9.73;;
11524;SDS011;5819;49.648;8.330;2023-05-14T03:36:08;15.18;;;9.80;;
11524;SDS011;5819;49.648;8.330;2023-05-14T03:38:37;10.93;;;9.75;;
11524;SDS011;5819;49.648;8.330;2023-05-14T03:41:05;12.60;;;10.27;;
11524;SDS011;5819;49.648;8.330;2023-05-14T03:43:33;11.00;;;10.00;;
11524;SDS011;5819;49.648;8.330;2023-05-14T03:46:01;11.25;;;9.40;;
11524;SDS011;5819;49.648;8.330;2023-05-14T03:48:29;10.98;;;9.93;;
11524;SDS011;5819;49.648;8.330;2023-05-14T03:50:57;10.85;;;9.75;;
11524;SDS011;5819;49.648;8.330;2023-05-14T03:53:24;10.63;;;9.40;;
11524;SDS011;5819;49.648;8.330;2023-05-14T03:55:54;10.70;;;9.70;;
11524;SDS011;5819;49.648;8.330;2023-05-14T03:58:21;11.00;;;9.90;;
11524;SDS011;5819;49.648;8.330;2023-05-14T04:00:49;11.02;;;10.02;;
11524;SDS011;5819;49.648;8.330;2023-05-14T04:03:17;10.40;;;9.45;;
11524;SDS011;5819;49.648;8.330;2023-05-14T04:05:45;11.52;;;10.35;;
11524;SDS011;5819;49.648;8.330;2023-05-14T04:08:13;11.38;;;10.23;;
11524;SDS011;5819;49.648;8.330;2023-05-14T04:10:41;10.70;;;9.60;;
11524;SDS011;5819;49.648;8.330;2023-05-14T04:13:11;11.38;;;10.13;;
11524;SDS011;5819;49.648;8.330;2023-05-14T04:15:38;11.07;;;9.98;;
11524;SDS011;5819;49.648;8.330;2023-05-14T04:18:06;11.20;;;10.10;;
11524;SDS011;5819;49.648;8.330;2023-05-14T04:20:34;13.45;;;10.88;;
11524;SDS011;5819;49.648;8.330;2023-05-14T04:23:02;10.75;;;9.65;;
11524;SDS011;5819;49.648;8.330;2023-05-14T04:25:30;11.95;;;10.13;;
11524;SDS011;5819;49.648;8.330;2023-05-14T04:27:58;11.10;;;10.07;;
11524;SDS011;5819;49.648;8.330;2023-05-14T04:30:27;11.68;;;10.13;;
11524;SDS011;5819;49.648;8.330;2023-05-14T04:32:55;12.38;;;10.25;;
11524;SDS011;5819;49.648;8.330;2023-05-14T04:35:23;12.23;;;9.63;;
11524;SDS011;5819;49.648;8.330;2023-05-14T04:37:51;10.90;;;9.80;;
11524;SDS011;5819;49.648;8.330;2023-05-14T04:40:19;11.05;;;9.93;;
11524;SDS011;5819;49.648;8.330;2023-05-14T04:42:48;10.98;;;9.82;;
11524;SDS011;5819;49.648;8.330;2023-05-14T04:45:16;11.27;;;9.63;;
11524;SDS011;5819;49.648;8.330;2023-05-14T04:47:48;11.73;;;10.52;;
11524;SDS011;5819;49.648;8.330;2023-05-14T04:50:16;12.32;;;11.10;;
11524;SDS011;5819;49.648;8.330;2023-05-14T04:52:44;13.43;;;10.70;;
11524;SDS011;5819;49.648;8.330;2023-05-14T04:55:12;12.85;;;10.23;;
11524;SDS011;5819;49.648;8.330;2023-05-14T04:57:40;10.57;;;9.68;;
11524;SDS011;5819;49.648;8.330;2023-05-14T05:00:09;11.25;;;10.25;;
11524;SDS011;5819;49.648;8.330;2023-05-14T05:02:37;11.25;;;10.15;;
11524;SDS011;5819;49.648;8.330;2023-05-14T05:05:07;10.98;;;9.98;;
11524;SDS011;5819;49.648;8.330;2023-05-14T05:07:35;11.48;;;10.30;;
11524;SDS011;5819;49.648;8.330;2023-05-14T05:10:03;11.55;;;10.45;;
11524;SDS011;5819;49.648;8.330;2023-05-14T05:12:31;11.52;;;9.95;;
11524;SDS011;5819;49.648;8.330;2023-05-14T05:15:00;10.88;;;9.77;;
11524;SDS011;5819;49.648;8.330;2023-05-14T05:17:29;10.98;;;9.90;;
11524;SDS011;5819;49.648;8.330;2023-05-14T05:19:57;10.00;;;9.10;;
11524;SDS011;5819;49.648;8.330;2023-05-14T05:22:26;10.18;;;9.27;;
11524;SDS011;5819;49.648;8.330;2023-05-14T05:24:54;11.90;;;9.80;;
11524;SDS011;5819;49.648;8.330;2023-05-14T05:27:22;10.10;;;9.02;;
11524;SDS011;5819;49.648;8.330;2023-05-14T05:29:49;10.23;;;9.15;;
11524;SDS011;5819;49.648;8.330;2023-05-14T05:32:17;10.40;;;9.30;;
11524;SDS011;5819;49.648;8.330;2023-05-14T05:34:46;10.15;;;9.07;;
11524;SDS011;5819;49.648;8.330;2023-05-14T05:37:13;9.13;;;8.32;;
11524;SDS011;5819;49.648;8.330;2023-05-14T05:39:43;10.80;;;9.02;;
11524;SDS011;5819;49.648;8.330;2023-05-14T05:42:11;9.68;;;8.88;;
11524;SDS011;5819;49.648;8.330;2023-05-14T05:44:38;9.35;;;8.48;;
11524;SDS011;5819;49.648;8.330;2023-05-14T05:47:06;10.20;;;9.23;;
11524;SDS011;5819;49.648;8.330;2023-05-14T05:49:34;9.52;;;8.63;;
11524;SDS011;5819;49.648;8.330;2023-05-14T05:52:05;9.70;;;8.85;;
11524;SDS011;5819;49.648;8.330;2023-05-14T05:54:33;9.95;;;8.98;;
11524;SDS011;5819;49.648;8.330;2023-05-14T05:57:02;9.55;;;8.75;;
11524;SDS011;5819;49.648;8.330;2023-05-14T05:59:31;10.48;;;9.45;;
11524;SDS011;5819;49.648;8.330;2023-05-14T06:01:59;12.65;;;8.43;;
11524;SDS011;5819;49.648;8.330;2023-05-14T06:04:27;11.85;;;9.23;;
11524;SDS011;5819;49.648;8.330;2023-05-14T06:06:54;9.70;;;8.82;;
11524;SDS011;5819;49.648;8.330;2023-05-14T06:09:22;9.40;;;8.55;;
11524;SDS011;5819;49.648;8.330;2023-05-14T06:11:50;9.90;;;8.80;;
11524;SDS011;5819;49.648;8.330;2023-05-14T06:14:19;9.77;;;8.77;;
11524;SDS011;5819;49.648;8.330;2023-05-14T06:16:47;10.25;;;9.27;;
11524;SDS011;5819;49.648;8.330;2023-05-14T06:19:15;9.57;;;8.57;;
11524;SDS011;5819;49.648;8.330;2023-05-14T06:21:43;10.48;;;9.07;;
11524;SDS011;5819;49.648;8.330;2023-05-14T06:24:11;9.80;;;8.77;;
11524;SDS011;5819;49.648;8.330;2023-05-14T06:26:39;9.55;;;8.70;;
11524;SDS011;5819;49.648;8.330;2023-05-14T06:29:07;9.40;;;8.48;;
11524;SDS011;5819;49.648;8.330;2023-05-14T06:31:37;10.10;;;9.10;;
11524;SDS011;5819;49.648;8.330;2023-05-14T06:34:05;8.80;;;7.97;;
11524;SDS011;5819;49.648;8.330;2023-05-14T06:36:33;9.85;;;8.95;;
11524;SDS011;5819;49.648;8.330;2023-05-14T06:39:01;10.45;;;8.70;;
11524;SDS011;5819;49.648;8.330;2023-05-14T06:41:29;8.93;;;8.02;;
11524;SDS011;5819;49.648;8.330;2023-05-14T06:43:57;8.82;;;7.97;;
11524;SDS011;5819;49.648;8.330;2023-05-14T06:46:25;9.43;;;8.45;;
11524;SDS011;5819;49.648;8.330;2023-05-14T06:48:54;9.02;;;7.95;;
11524;SDS011;5819;49.648;8.330;2023-05-14T06:51:25;9.48;;;7.75;;
11524;SDS011;5819;49.648;8.330;2023-05-14T06:53:53;8.27;;;7.47;;
11524;SDS011;5819;49.648;8.330;2023-05-14T06:56:21;11.00;;;9.30;;
11524;SDS011;5819;49.648;8.330;2023-05-14T06:58:49;10.48;;;8.07;;
11524;SDS011;5819;49.648;8.330;2023-05-14T07:01:17;9.70;;;8.70;;
11524;SDS011;5819;49.648;8.330;2023-05-14T07:03:45;8.60;;;7.80;;
11524;SDS011;5819;49.648;8.330;2023-05-14T07:06:14;7.68;;;6.97;;
11524;SDS011;5819;49.648;8.330;2023-05-14T07:08:42;11.50;;;7.90;;
11524;SDS011;5819;49.648;8.330;2023-05-14T07:11:12;9.32;;;8.32;;
11524;SDS011;5819;49.648;8.330;2023-05-14T07:13:42;10.02;;;7.85;;
11524;SDS011;5819;49.648;8.330;2023-05-14T07:16:09;8.50;;;7.60;;
11524;SDS011;5819;49.648;8.330;2023-05-14T07:18:37;7.43;;;6.72;;
11524;SDS011;5819;49.648;8.330;2023-05-14T07:21:05;8.68;;;7.85;;
11524;SDS011;5819;49.648;8.330;2023-05-14T07:23:34;8.65;;;7.65;;
11524;SDS011;5819;49.648;8.330;2023-05-14T07:26:03;8.93;;;7.00;;
11524;SDS011;5819;49.648;8.330;2023-05-14T07:28:32;8.18;;;7.38;;
11524;SDS011;5819;49.648;8.330;2023-05-14T07:31:01;7.70;;;7.00;;
11524;SDS011;5819;49.648;8.330;2023-05-14T07:33:37;6.70;;;6.10;;
11524;SDS011;5819;49.648;8.330;2023-05-14T07:36:06;6.93;;;6.32;;
11524;SDS011;5819;49.648;8.330;2023-05-14T07:38:37;7.80;;;6.88;;
11524;SDS011;5819;49.648;8.330;2023-05-14T07:41:05;8.98;;;7.10;;
11524;SDS011;5819;49.648;8.330;2023-05-14T07:43:33;7.88;;;7.07;;
11524;SDS011;5819;49.648;8.330;2023-05-14T07:46:00;6.72;;;6.05;;
11524;SDS011;5819;49.648;8.330;2023-05-14T07:48:28;7.13;;;6.43;;
11524;SDS011;5819;49.648;8.330;2023-05-14T07:50:56;9.02;;;6.20;;
11524;SDS011;5819;49.648;8.330;2023-05-14T07:53:24;7.15;;;6.40;;
11524;SDS011;5819;49.648;8.330;2023-05-14T07:55:53;7.00;;;6.38;;
11524;SDS011;5819;49.648;8.330;2023-05-14T07:58:21;7.05;;;6.45;;
11524;SDS011;5819;49.648;8.330;2023-05-14T08:00:50;8.73;;;6.65;;
11524;SDS011;5819;49.648;8.330;2023-05-14T08:03:18;8.18;;;6.97;;
11524;SDS011;5819;49.648;8.330;2023-05-14T08:05:47;7.75;;;7.00;;
11524;SDS011;5819;49.648;8.330;2023-05-14T08:08:15;7.30;;;6.35;;
11524;SDS011;5819;49.648;8.330;2023-05-14T08:10:43;7.93;;;7.22;;
11524;SDS011;5819;49.648;8.330;2023-05-14T08:13:13;6.82;;;6.22;;
11524;SDS011;5819;49.648;8.330;2023-05-14T08:15:41;7.82;;;7.03;;
11524;SDS011;5819;49.648;8.330;2023-05-14T08:18:08;6.85;;;6.10;;
11524;SDS011;5819;49.648;8.330;2023-05-14T08:20:36;7.30;;;6.65;;
11524;SDS011;5819;49.648;8.330;2023-05-14T08:23:04;7.38;;;5.57;;
11524;SDS011;5819;49.648;8.330;2023-05-14T08:25:32;6.35;;;5.55;;
11524;SDS011;5819;49.648;8.330;2023-05-14T08:28:00;6.25;;;5.65;;
11524;SDS011;5819;49.648;8.330;2023-05-14T08:30:29;5.80;;;5.07;;
11524;SDS011;5819;49.648;8.330;2023-05-14T08:32:57;6.70;;;5.65;;
11524;SDS011;5819;49.648;8.330;2023-05-14T08:35:25;10.05;;;6.05;;
11524;SDS011;5819;49.648;8.330;2023-05-14T08:37:53;6.95;;;5.80;;
11524;SDS011;5819;49.648;8.330;2023-05-14T08:40:22;7.80;;;6.20;;
11524;SDS011;5819;49.648;8.330;2023-05-14T08:42:51;6.90;;;6.18;;
11524;SDS011;5819;49.648;8.330;2023-05-14T08:45:20;6.85;;;5.20;;
11524;SDS011;5819;49.648;8.330;2023-05-14T08:47:55;7.68;;;5.53;;
11524;SDS011;5819;49.648;8.330;2023-05-14T08:50:25;6.28;;;5.68;;
11524;SDS011;5819;49.648;8.330;2023-05-14T08:52:55;6.53;;;5.88;;
11524;SDS011;5819;49.648;8.330;2023-05-14T08:55:23;6.53;;;5.88;;
11524;SDS011;5819;49.648;8.330;2023-05-14T08:57:54;6.07;;;5.40;;
11524;SDS011;5819;49.648;8.330;2023-05-14T09:00:22;6.78;;;6.05;;
11524;SDS011;5819;49.648;8.330;2023-05-14T09:02:56;7.10;;;5.57;;
11524;SDS011;5819;49.648;8.330;2023-05-14T09:05:26;7.57;;;5.57;;
11524;SDS011;5819;49.648;8.330;2023-05-14T09:07:54;6.45;;;5.85;;
11524;SDS011;5819;49.648;8.330;2023-05-14T09:10:22;5.85;;;5.35;;
11524;SDS011;5819;49.648;8.330;2023-05-14T09:12:50;5.88;;;5.18;;
11524;SDS011;5819;49.648;8.330;2023-05-14T09:15:18;6.13;;;5.53;;
11524;SDS011;5819;49.648;8.330;2023-05-14T09:17:46;5.60;;;5.10;;
11524;SDS011;5819;49.648;8.330;2023-05-14T09:20:16;5.05;;;4.65;;
11524;SDS011;5819;49.648;8.330;2023-05-14T09:22:44;5.75;;;5.25;;
11524;SDS011;5819;49.648;8.330;2023-05-14T09:25:12;7.47;;;6.05;;
11524;SDS011;5819;49.648;8.330;2023-05-14T09:27:40;7.22;;;5.05;;
11524;SDS011;5819;49.648;8.330;2023-05-14T09:30:09;7.65;;;5.20;;
11524;SDS011;5819;49.648;8.330;2023-05-14T09:32:38;6.47;;;5.88;;
11524;SDS011;5819;49.648;8.330;2023-05-14T09:35:12;5.57;;;5.07;;
11524;SDS011;5819;49.648;8.330;2023-05-14T09:37:45;5.95;;;5.03;;
11524;SDS011;5819;49.648;8.330;2023-05-14T09:40:14;6.85;;;5.43;;
11524;SDS011;5819;49.648;8.330;2023-05-14T09:42:43;5.07;;;4.50;;
11524;SDS011;5819;49.648;8.330;2023-05-14T09:45:11;7.78;;;4.93;;
11524;SDS011;5819;49.648;8.330;2023-05-14T09:47:39;6.05;;;4.80;;
11524;SDS011;5819;49.648;8.330;2023-05-14T09:50:08;5.72;;;5.07;;
11524;SDS011;5819;49.648;8.330;2023-05-14T09:52:36;6.60;;;5.38;;
11524;SDS011;5819;49.648;8.330;2023-05-14T09:55:07;4.78;;;4.38;;
11524;SDS011;5819;49.648;8.330;2023-05-14T09:57:36;5.50;;;4.43;;
11524;SDS011;5819;49.648;8.330;2023-05-14T10:00:04;4.55;;;4.15;;
11524;SDS011;5819;49.648;8.330;2023-05-14T10:02:35;5.35;;;4.80;;
11524;SDS011;5819;49.648;8.330;2023-05-14T10:05:04;4.25;;;3.85;;
11524;SDS011;5819;49.648;8.330;2023-05-14T10:07:36;4.53;;;4.13;;
11524;SDS011;5819;49.648;8.330;2023-05-14T10:10:09;5.35;;;4.85;;
11524;SDS011;5819;49.648;8.330;2023-05-14T10:12:41;5.72;;;3.92;;
11524;SDS011;5819;49.648;8.330;2023-05-14T10:15:15;4.90;;;4.50;;
11524;SDS011;5819;49.648;8.330;2023-05-14T10:17:47;6.53;;;4.40;;
11524;SDS011;5819;49.648;8.330;2023-05-14T10:20:19;4.60;;;4.18;;
11524;SDS011;5819;49.648;8.330;2023-05-14T10:22:49;4.97;;;4.03;;
11524;SDS011;5819;49.648;8.330;2023-05-14T10:25:19;6.20;;;4.75;;
11524;SDS011;5819;49.648;8.330;2023-05-14T10:27:48;6.00;;;4.57;;
11524;SDS011;5819;49.648;8.330;2023-05-14T10:30:16;5.78;;;5.28;;
11524;SDS011;5819;49.648;8.330;2023-05-14T10:32:48;6.07;;;4.70;;
11524;SDS011;5819;49.648;8.330;2023-05-14T10:35:31;5.53;;;5.03;;
11524;SDS011;5819;49.648;8.330;2023-05-14T10:38:20;4.53;;;4.13;;
11524;SDS011;5819;49.648;8.330;2023-05-14T10:40:51;6.53;;;4.70;;
11524;SDS011;5819;49.648;8.330;2023-05-14T10:43:25;6.00;;;4.28;;
11524;SDS011;5819;49.648;8.330;2023-05-14T10:45:55;4.80;;;4.35;;
11524;SDS011;5819;49.648;8.330;2023-05-14T10:48:23;6.25;;;4.53;;
11524;SDS011;5819;49.648;8.330;2023-05-14T10:50:52;4.70;;;4.30;;
11524;SDS011;5819;49.648;8.330;2023-05-14T10:53:28;4.97;;;4.53;;
11524;SDS011;5819;49.648;8.330;2023-05-14T10:56:02;5.20;;;4.30;;
11524;SDS011;5819;49.648;8.330;2023-05-14T10:58:34;4.45;;;4.07;;
11524;SDS011;5819;49.648;8.330;2023-05-14T11:01:04;4.80;;;4.30;;
11524;SDS011;5819;49.648;8.330;2023-05-14T11:03:37;4.50;;;4.10;;
11524;SDS011;5819;49.648;8.330;2023-05-14T11:06:07;4.95;;;4.45;;
11524;SDS011;5819;49.648;8.330;2023-05-14T11:08:36;4.57;;;4.18;;
11524;SDS011;5819;49.648;8.330;2023-05-14T11:11:07;4.47;;;4.10;;
11524;SDS011;5819;49.648;8.330;2023-05-14T11:13:36;4.63;;;4.10;;
11524;SDS011;5819;49.648;8.330;2023-05-14T11:16:06;4.30;;;3.97;;
11524;SDS011;5819;49.648;8.330;2023-05-14T11:18:38;4.82;;;4.38;;
11524;SDS011;5819;49.648;8.330;2023-05-14T11:21:07;4.60;;;3.90;;
11524;SDS011;5819;49.648;8.330;2023-05-14T11:23:35;4.32;;;4.03;;
11524;SDS011;5819;49.648;8.330;2023-05-14T11:26:04;4.80;;;4.15;;
11524;SDS011;5819;49.648;8.330;2023-05-14T11:28:33;4.80;;;4.30;;
11524;SDS011;5819;49.648;8.330;2023-05-14T11:31:01;5.35;;;4.60;;
11524;SDS011;5819;49.648;8.330;2023-05-14T11:33:30;5.63;;;4.43;;
11524;SDS011;5819;49.648;8.330;2023-05-14T11:35:58;4.32;;;3.92;;
11524;SDS011;5819;49.648;8.330;2023-05-14T11:38:26;5.15;;;3.97;;
11524;SDS011;5819;49.648;8.330;2023-05-14T11:40:54;7.18;;;3.95;;
11524;SDS011;5819;49.648;8.330;2023-05-14T11:43:23;6.68;;;4.47;;
11524;SDS011;5819;49.648;8.330;2023-05-14T11:45:55;8.25;;;3.80;;
11524;SDS011;5819;49.648;8.330;2023-05-14T11:48:23;4.03;;;3.53;;
11524;SDS011;5819;49.648;8.330;2023-05-14T11:50:51;4.22;;;3.83;;
11524;SDS011;5819;49.648;8.330;2023-05-14T11:53:19;4.60;;;4.20;;
11524;SDS011;5819;49.648;8.330;2023-05-14T11:55:51;4.68;;;3.88;;
11524;SDS011;5819;49.648;8.330;2023-05-14T11:58:20;3.80;;;3.50;;
11524;SDS011;5819;49.648;8.330;2023-05-14T12:00:48;4.55;;;3.20;;
11524;SDS011;5819;49.648;8.330;2023-05-14T12:03:18;4.07;;;3.72;;
11524;SDS011;5819;49.648;8.330;2023-05-14T12:05:54;4.35;;;3.92;;
11524;SDS011;5819;49.648;8.330;2023-05-14T12:08:24;4.10;;;3.80;;
11524;SDS011;5819;49.648;8.330;2023-05-14T12:10:53;4.15;;;3.75;;
11524;SDS011;5819;49.648;8.330;2023-05-14T12:13:21;4.25;;;3.83;;
11524;SDS011;5819;49.648;8.330;2023-05-14T12:15:52;3.85;;;3.55;;
11524;SDS011;5819;49.648;8.330;2023-05-14T12:18:23;3.72;;;3.42;;
11524;SDS011;5819;49.648;8.330;2023-05-14T12:20:51;4.88;;;3.30;;
11524;SDS011;5819;49.648;8.330;2023-05-14T12:23:23;3.50;;;3.20;;
11524;SDS011;5819;49.648;8.330;2023-05-14T12:25:52;3.60;;;3.30;;
11524;SDS011;5819;49.648;8.330;2023-05-14T12:28:21;4.40;;;3.22;;
11524;SDS011;5819;49.648;8.330;2023-05-14T12:30:54;3.63;;;3.33;;
11524;SDS011;5819;49.648;8.330;2023-05-14T12:33:24;3.63;;;3.35;;
11524;SDS011;5819;49.648;8.330;2023-05-14T12:35:53;4.57;;;3.35;;
11524;SDS011;5819;49.648;8.330;2023-05-14T12:38:25;4.20;;;3.75;;
11524;SDS011;5819;49.648;8.330;2023-05-14T12:40:53;3.95;;;3.53;;
11524;SDS011;5819;49.648;8.330;2023-05-14T12:43:22;4.28;;;3.50;;
11524;SDS011;5819;49.648;8.330;2023-05-14T12:45:50;4.80;;;3.63;;
11524;SDS011;5819;49.648;8.330;2023-05-14T12:48:17;4.35;;;3.22;;
11524;SDS011;5819;49.648;8.330;2023-05-14T12:50:46;4.20;;;3.50;;
11524;SDS011;5819;49.648;8.330;2023-05-14T12:53:14;5.85;;;3.50;;
11524;SDS011;5819;49.648;8.330;2023-05-14T12:55:42;3.85;;;3.50;;
11524;SDS011;5819;49.648;8.330;2023-05-14T12:58:10;3.38;;;3.08;;
11524;SDS011;5819;49.648;8.330;2023-05-14T13:00:38;5.40;;;3.25;;
11524;SDS011;5819;49.648;8.330;2023-05-14T13:03:06;3.88;;;3.47;;
11524;SDS011;5819;49.648;8.330;2023-05-14T13:05:34;9.00;;;3.35;;
11524;SDS011;5819;49.648;8.330;2023-05-14T13:08:03;3.88;;;3.47;;
11524;SDS011;5819;49.648;8.330;2023-05-14T13:10:31;3.58;;;3.20;;
11524;SDS011;5819;49.648;8.330;2023-05-14T13:12:59;5.72;;;3.40;;
11524;SDS011;5819;49.648;8.330;2023-05-14T13:15:27;3.75;;;3.00;;
11524;SDS011;5819;49.648;8.330;2023-05-14T13:17:56;3.33;;;3.03;;
11524;SDS011;5819;49.648;8.330;2023-05-14T13:20:24;4.72;;;3.00;;
11524;SDS011;5819;49.648;8.330;2023-05-14T13:22:52;3.20;;;2.92;;
11524;SDS011;5819;49.648;8.330;2023-05-14T13:25:21;2.75;;;2.53;;
11524;SDS011;5819;49.648;8.330;2023-05-14T13:27:50;3.25;;;2.88;;
11524;SDS011;5819;49.648;8.330;2023-05-14T13:30:18;3.15;;;2.88;;
11524;SDS011;5819;49.648;8.330;2023-05-14T13:32:46;4.00;;;3.17;;
11524;SDS011;5819;49.648;8.330;2023-05-14T13:35:14;3.25;;;2.95;;
11524;SDS011;5819;49.648;8.330;2023-05-14T13:37:42;3.08;;;2.83;;
11524;SDS011;5819;49.648;8.330;2023-05-14T13:40:11;3.38;;;3.08;;
11524;SDS011;5819;49.648;8.330;2023-05-14T13:42:41;4.00;;;2.88;;
11524;SDS011;5819;49.648;8.330;2023-05-14T13:45:09;2.88;;;2.67;;
11524;SDS011;5819;49.648;8.330;2023-05-14T13:47:38;3.72;;;2.50;;
11524;SDS011;5819;49.648;8.330;2023-05-14T13:50:06;2.85;;;2.65;;
11524;SDS011;5819;49.648;8.330;2023-05-14T13:52:34;2.85;;;2.65;;
11524;SDS011;5819;49.648;8.330;2023-05-14T13:55:04;4.70;;;2.70;;
11524;SDS011;5819;49.648;8.330;2023-05-14T13:57:33;2.67;;;2.47;;
11524;SDS011;5819;49.648;8.330;2023-05-14T14:00:03;2.63;;;2.42;;
11524;SDS011;5819;49.648;8.330;2023-05-14T14:02:32;3.00;;;2.70;;
11524;SDS011;5819;49.648;8.330;2023-05-14T14:05:00;2.72;;;2.53;;
11524;SDS011;5819;49.648;8.330;2023-05-14T14:07:28;3.17;;;2.30;;
11524;SDS011;5819;49.648;8.330;2023-05-14T14:09:55;2.97;;;2.78;;
11524;SDS011;5819;49.648;8.330;2023-05-14T14:12:23;4.25;;;2.60;;
11524;SDS011;5819;49.648;8.330;2023-05-14T14:14:51;2.55;;;2.35;;
11524;SDS011;5819;49.648;8.330;2023-05-14T14:17:21;3.42;;;2.63;;
11524;SDS011;5819;49.648;8.330;2023-05-14T14:19:49;3.55;;;2.72;;
11524;SDS011;5819;49.648;8.330;2023-05-14T14:22:17;2.80;;;2.50;;
11524;SDS011;5819;49.648;8.330;2023-05-14T14:24:45;4.00;;;2.60;;
11524;SDS011;5819;49.648;8.330;2023-05-14T14:27:13;3.10;;;2.35;;
11524;SDS011;5819;49.648;8.330;2023-05-14T14:29:44;4.55;;;2.67;;
11524;SDS011;5819;49.648;8.330;2023-05-14T14:32:12;3.70;;;2.65;;
11524;SDS011;5819;49.648;8.330;2023-05-14T14:34:41;2.90;;;2.47;;
11524;SDS011;5819;49.648;8.330;2023-05-14T14:37:09;3.28;;;2.42;;
11524;SDS011;5819;49.648;8.330;2023-05-14T14:39:37;2.67;;;2.47;;
11524;SDS011;5819;49.648;8.330;2023-05-14T14:42:05;4.18;;;2.78;;
11524;SDS011;5819;49.648;8.330;2023-05-14T14:44:33;2.75;;;2.40;;
11524;SDS011;5819;49.648;8.330;2023-05-14T14:47:00;2.78;;;2.58;;
11524;SDS011;5819;49.648;8.330;2023-05-14T14:49:29;3.22;;;2.90;;
11524;SDS011;5819;49.648;8.330;2023-05-14T14:51:58;2.53;;;2.33;;
11524;SDS011;5819;49.648;8.330;2023-05-14T14:54:27;2.53;;;2.33;;
11524;SDS011;5819;49.648;8.330;2023-05-14T14:56:55;2.92;;;2.63;;
11524;SDS011;5819;49.648;8.330;2023-05-14T14:59:23;3.20;;;2.60;;
11524;SDS011;5819;49.648;8.330;2023-05-14T15:01:51;3.10;;;2.70;;
11524;SDS011;5819;49.648;8.330;2023-05-14T15:04:20;2.50;;;2.30;;
11524;SDS011;5819;49.648;8.330;2023-05-14T15:06:48;2.40;;;2.20;;
11524;SDS011;5819;49.648;8.330;2023-05-14T15:09:17;2.75;;;2.55;;
11524;SDS011;5819;49.648;8.330;2023-05-14T15:11:44;4.75;;;3.17;;